Aérodrome :
LOGIN :

S'inscrire | Disclaimer

   EN    FR    IT 

 










Légende :    VFR   VFR Marginal   IFR   IFR Intensif   IFR Très Intensif
Visi : 
Plafond : 
>= 8 km
>= 3000ft
5 à 8 km
1000 à 3000 ft
1500m à 5 km
500 à 1000 ft
800 à 1500m
200 à 500 ft
< 800m
< 200 ft
Symboles :   Orages  Brouillard  Fortes neiges  Fortes précipitations  Vent > 20 kt
SIGMETs :   Divers  Orages  Givrage  Turbulence  Onde Orograph.  Cendres Volcan.







- Altitude de l'aérodrome : 41 ft


LIRE - Pratica di Mare Air Base Pomezia

DERNIER METAR :
  • 191955Z 22007KT 9999 SCT025 19/10 Q1011

METARs EXPIRÉS :
  • 191855Z 12009KT 9999 SCT030 19/12 Q1011 RMK BKN SCT160 VIS MIN 9999 WIND THR13 25007KT WIND THR31 24008KT BLU
  • 191755Z 25008KT 9999 SCT030 19/13 Q1011 RMK BKN SCT180 VIS MIN 9999 WIND THR13 25008KT WIND THR31 25007KT BLU

TAF TAF LIRE
Valide du 19 à 18h jusqu'au 20 à 03h UTC


191700Z 1918/2003 33008KT 9999 SCT020
TEMPO 1921/2002 5000 TSRA BKN020 FEW020CB
BECMG 2000/2001 34018KT
Pas de NOTAMs connus pour ce terrain.
4 SIGMETs publiés pour la FIR Roma (LIRR) :
 
Turbulence forte
LIRR SIGMET 7 VALID 192000/200000 LIIB
LIRR ROMA FIR SEV TURB FCST N OF LINE N3747 E01048 - N4031 E01528 ABV FL160 NC=
Orages noyés dans la masse
LIRR SIGMET 6 VALID 192000/200000 LIIB
LIRR ROMA FIR EMBD TS FCST WI N4310 E00944 - N4335 E01016 - N4343 E01109 - N4240 E01316 - N4127 E01421 - N4109 E01508 - N4009 E01542 - N3951 E01200 - N4132 E00944 - N4310 E00944 TOP ABV FL260 MOV SSE NC=
Onde orographique forte
LIRR SIGMET 5 VALID 191700/192000 LIIB
LIRR ROMA FIR SEV MTW FCST WI N4119 E00914 - N3830 E00906 - N3825 E01146 - N4042 E01055 - N4119 E00914 FL030/120 NC=
Turbulence forte
LIRR SIGMET 4 VALID 191700/192000 LIIB
LIRR ROMA FIR SEV TURB FCST ENTIRE FIR ABV FL160 INTSF=



MET'MAP, la Météo Aéronautique d'un coup d'oeil ! - Copyright ORBIFLY Décembre 2007 - Disclaimer

ORBIFLY MET'MAP TEAM :

Programmation & Développement : Alexandra Zaïnal
Conception & Développement : Baudouin d'Aumeries
Co-Programmation & Développement : Marc-Olivier Méhu
Soutien technique & logistique : Manuel Goepfert

Contact : metmap@orbifly.com




SOURCES & CREDITS :

   NOAA